Time;durP1;ratioP1;P1;durP2;ratioP2;P2;SDS_P1;SDS_P2;PMS_P1;PMS_P2;Temp;Humidity;BMP_temperature;BMP_pressure;BME280_temperature;BME280_humidity;BME280_pressure;Samples;Min_cycle;Max_cycle;Signal;HPM_P1;HPM_P2
2023/04/08 00:00:13;;;;;;;0.20;0.20;;;;;;;14.50;48.22;102347.50;5022404;28;20453;-68
2023/04/08 00:02:38;;;;;;;0.28;0.28;;;;;;;14.67;47.05;102340.53;5015104;28;20593;-70
2023/04/08 00:05:05;;;;;;;0.20;0.20;;;;;;;14.45;47.17;102346.47;5014838;28;20559;-68
2023/04/08 00:07:30;;;;;;;0.20;0.20;;;;;;;14.40;48.49;102344.41;4996676;28;20072;-69
2023/04/08 00:09:55;;;;;;;0.20;0.20;;;;;;;14.26;48.73;102345.47;4999146;28;20113;-67
2023/04/08 00:12:21;;;;;;;0.22;0.22;;;;;;;14.27;48.63;102347.13;5007356;28;20038;-69
2023/04/08 00:14:46;;;;;;;0.30;0.30;;;;;;;14.10;50.00;102346.75;5005925;28;20387;-68
2023/04/08 00:17:12;;;;;;;0.30;0.30;;;;;;;14.13;49.45;102359.03;5018263;28;20042;-69
2023/04/08 00:19:37;;;;;;;0.20;0.20;;;;;;;13.99;49.35;102352.78;5032996;28;20513;-68
2023/04/08 00:22:02;;;;;;;0.30;0.30;;;;;;;14.25;48.08;102354.59;5053963;28;20033;-69
2023/04/08 00:24:28;;;;;;;0.10;0.10;;;;;;;14.11;48.56;102351.09;5060402;28;20086;-69
2023/04/08 00:26:53;;;;;;;0.30;0.30;;;;;;;14.00;48.60;102354.47;5057949;28;20032;-68
2023/04/08 00:29:19;;;;;;;0.20;0.20;;;;;;;14.10;48.04;102359.44;5067269;28;20059;-69
2023/04/08 00:31:44;;;;;;;0.20;0.20;;;;;;;14.04;48.64;102361.13;5074240;28;20037;-70
2023/04/08 00:34:10;;;;;;;0.30;0.30;;;;;;;14.01;48.84;102364.22;5069016;28;20040;-69
2023/04/08 00:36:35;;;;;;;0.20;0.20;;;;;;;13.94;48.31;102365.28;5038675;28;20067;-69
2023/04/08 00:39:03;;;;;;;0.20;0.20;;;;;;;13.85;47.97;102366.56;5034534;28;20037;-69
2023/04/08 00:41:28;;;;;;;0.20;0.20;;;;;;;13.92;48.14;102359.25;5040689;28;20423;-69
2023/04/08 00:43:53;;;;;;;0.22;0.22;;;;;;;13.80;48.75;102374.44;5053977;28;20037;-69
2023/04/08 00:46:19;;;;;;;0.30;0.30;;;;;;;13.73;48.55;102377.16;5054652;28;20105;-70
2023/04/08 00:48:45;;;;;;;0.20;0.20;;;;;;;13.71;48.76;102376.53;5053871;28;20041;-68
2023/04/08 00:51:11;;;;;;;0.17;0.17;;;;;;;13.68;49.00;102368.84;5054289;28;20048;-68
2023/04/08 00:53:36;;;;;;;0.30;0.30;;;;;;;13.72;48.58;102363.88;5054194;28;20413;-68
2023/04/08 00:56:02;;;;;;;0.50;0.20;;;;;;;13.71;48.17;102373.84;5054038;28;20138;-69
2023/04/08 00:58:29;;;;;;;0.25;0.25;;;;;;;13.75;47.81;102372.38;5054659;28;20123;-68
2023/04/08 01:01:05;;;;;;;0.20;0.20;;;;;;;13.86;47.38;102379.00;5053894;28;20045;-69
2023/04/08 01:03:45;;;;;;;0.30;0.30;;;;;;;13.59;47.87;102375.50;5053888;28;20091;-69
2023/04/08 01:06:41;;;;;;;0.40;0.40;;;;;;;13.72;48.23;102374.69;5054093;28;20051;-68
2023/04/08 01:09:08;;;;;;;0.30;0.30;;;;;;;13.43;48.25;102378.59;5054113;28;20036;-69
2023/04/08 01:11:34;;;;;;;0.25;0.25;;;;;;;13.49;47.72;102374.22;5053971;28;20033;-68
2023/04/08 01:14:05;;;;;;;0.30;0.30;;;;;;;13.58;47.98;102381.91;5054183;28;20029;-68
2023/04/08 01:16:31;;;;;;;0.20;0.20;;;;;;;13.44;49.19;102374.03;5054300;28;20045;-68
2023/04/08 01:18:57;;;;;;;0.35;0.35;;;;;;;13.48;48.52;102375.28;5053666;28;20086;-69
2023/04/08 01:21:24;;;;;;;0.10;0.10;;;;;;;13.32;49.40;102373.81;5053550;28;20044;-69
2023/04/08 01:24:01;;;;;;;0.25;0.25;;;;;;;13.10;48.89;102386.66;5034801;28;20087;-69
2023/04/08 01:26:27;;;;;;;0.20;0.20;;;;;;;13.21;49.23;102377.09;5053462;28;20041;-70
2023/04/08 01:28:56;;;;;;;0.22;0.22;;;;;;;13.19;48.95;102382.72;5053588;28;20272;-69
2023/04/08 01:31:24;;;;;;;0.20;0.20;;;;;;;13.11;49.39;102388.28;5053712;28;20107;-70
2023/04/08 01:33:50;;;;;;;0.28;0.28;;;;;;;13.29;48.64;102385.00;5052646;28;20140;-69
2023/04/08 01:36:19;;;;;;;0.28;0.28;;;;;;;13.21;48.47;102388.75;5053139;28;20090;-69
2023/04/08 01:38:46;;;;;;;0.20;0.20;;;;;;;13.16;49.36;102393.09;5053210;28;20082;-69
2023/04/08 01:41:11;;;;;;;0.30;0.30;;;;;;;13.20;48.10;102392.50;5053070;28;20029;-67
2023/04/08 01:43:42;;;;;;;0.40;0.40;;;;;;;13.21;48.40;102390.59;5053320;28;20100;-68
2023/04/08 01:46:10;;;;;;;0.40;0.40;;;;;;;13.17;49.32;102400.97;5035182;28;20045;-69
2023/04/08 01:48:36;;;;;;;0.30;0.30;;;;;;;12.99;48.70;102408.78;5052659;28;20037;-69
2023/04/08 01:51:04;;;;;;;0.20;0.20;;;;;;;12.96;49.32;102400.25;5052791;28;20078;-67
2023/04/08 01:53:30;;;;;;;0.20;0.20;;;;;;;12.98;49.32;102401.72;5053070;28;20439;-69
2023/04/08 01:56:00;;;;;;;0.40;0.40;;;;;;;13.04;49.09;102400.13;5052708;28;20021;-68
2023/04/08 01:58:30;;;;;;;0.30;0.30;;;;;;;12.85;49.55;102400.84;5053377;28;20024;-69
2023/04/08 02:00:57;;;;;;;0.30;0.30;;;;;;;12.97;48.69;102408.16;5052597;28;20029;-68
2023/04/08 02:03:24;;;;;;;0.30;0.30;;;;;;;12.95;48.80;102404.00;5052312;28;20076;-68
2023/04/08 02:05:49;;;;;;;0.30;0.30;;;;;;;12.90;48.50;102399.22;5052641;28;20452;-69
2023/04/08 02:08:15;;;;;;;0.30;0.30;;;;;;;12.89;49.07;102400.22;5034791;28;20033;-69
2023/04/08 02:10:40;;;;;;;0.20;0.20;;;;;;;12.81;49.22;102394.19;5053175;28;20125;-70
2023/04/08 02:13:06;;;;;;;0.30;0.30;;;;;;;12.70;49.96;102397.47;5033982;28;20029;-69
2023/04/08 02:15:36;;;;;;;0.20;0.20;;;;;;;12.65;49.99;102405.34;5052265;28;20052;-68
2023/04/08 02:18:14;;;;;;;0.35;0.35;;;;;;;12.62;50.50;102413.84;5034632;28;20035;-67
2023/04/08 02:20:46;;;;;;;0.30;0.30;;;;;;;12.70;48.74;102400.16;5052290;28;20057;-69
2023/04/08 02:23:25;;;;;;;0.20;0.20;;;;;;;12.93;49.65;102406.88;5052472;28;20029;-68
2023/04/08 02:25:54;;;;;;;0.30;0.30;;;;;;;12.57;48.82;102414.44;5052207;28;20032;-70
2023/04/08 02:28:20;;;;;;;0.22;0.22;;;;;;;12.70;48.56;102409.09;5052905;28;20039;-69
2023/04/08 02:30:49;;;;;;;0.30;0.30;;;;;;;12.78;48.53;102416.16;5052322;28;20537;-68
2023/04/08 02:33:17;;;;;;;0.30;0.30;;;;;;;12.86;48.64;102416.00;5052059;28;20115;-69
2023/04/08 02:35:44;;;;;;;0.20;0.20;;;;;;;12.80;48.58;102417.63;5034076;28;20187;-71
2023/04/08 02:38:09;;;;;;;0.30;0.30;;;;;;;12.39;50.71;102419.50;5042383;28;20061;-70
2023/04/08 02:40:35;;;;;;;0.20;0.20;;;;;;;12.57;49.75;102424.38;5052831;28;20104;-67
2023/04/08 02:43:01;;;;;;;0.20;0.20;;;;;;;12.40;50.52;102425.75;5033539;28;20116;-69
2023/04/08 02:45:30;;;;;;;0.20;0.20;;;;;;;12.55;49.66;102432.66;5051851;28;20033;-69
2023/04/08 02:47:56;;;;;;;0.20;0.20;;;;;;;12.53;49.64;102425.81;5052215;28;20065;-69
2023/04/08 02:50:22;;;;;;;0.30;0.30;;;;;;;12.44;50.27;102427.00;5051996;28;20064;-68
2023/04/08 02:52:47;;;;;;;0.20;0.20;;;;;;;12.31;50.91;102427.75;5051970;28;20350;-69
2023/04/08 02:55:12;;;;;;;0.10;0.10;;;;;;;12.31;50.95;102431.28;5053379;28;20079;-68
2023/04/08 02:57:39;;;;;;;0.30;0.30;;;;;;;12.32;50.93;102434.81;5053456;28;20029;-68
2023/04/08 03:00:06;;;;;;;0.20;0.20;;;;;;;12.38;50.89;102427.81;5053040;28;20562;-69
2023/04/08 03:02:31;;;;;;;0.30;0.30;;;;;;;12.33;49.87;102437.31;5053190;28;20499;-67
2023/04/08 03:04:57;;;;;;;0.22;0.22;;;;;;;12.51;49.12;102436.78;5052369;28;20036;-68
2023/04/08 03:07:22;;;;;;;0.35;0.35;;;;;;;12.46;49.40;102446.53;5052912;28;20036;-69
2023/04/08 03:09:48;;;;;;;0.30;0.30;;;;;;;12.48;49.58;102441.75;5052466;28;20094;-69
2023/04/08 03:12:13;;;;;;;0.30;0.30;;;;;;;12.22;50.56;102445.97;5051638;28;20082;-69
2023/04/08 03:14:38;;;;;;;0.20;0.20;;;;;;;12.39;49.96;102446.47;5032812;28;20087;-69
2023/04/08 03:17:04;;;;;;;0.30;0.30;;;;;;;12.30;50.30;102448.47;5050914;28;20044;-70
2023/04/08 03:19:29;;;;;;;0.25;0.25;;;;;;;12.37;49.76;102443.13;5051833;28;20228;-70
2023/04/08 03:21:55;;;;;;;0.30;0.30;;;;;;;12.33;49.66;102445.41;5051482;28;20033;-69
2023/04/08 03:24:20;;;;;;;0.30;0.30;;;;;;;12.15;50.32;102452.31;5051181;28;20041;-70
2023/04/08 03:26:45;;;;;;;0.40;0.40;;;;;;;12.28;50.05;102452.41;5050799;28;20120;-69
2023/04/08 03:29:11;;;;;;;0.20;0.20;;;;;;;12.17;50.47;102451.09;5050866;28;20115;-70
2023/04/08 03:31:36;;;;;;;0.30;0.30;;;;;;;12.00;51.50;102454.28;5051301;28;20029;-69
2023/04/08 03:34:01;;;;;;;0.20;0.20;;;;;;;12.06;51.01;102448.09;5046174;28;20504;-68
2023/04/08 03:36:27;;;;;;;0.20;0.20;;;;;;;12.22;50.07;102453.19;5030881;28;20136;-70
2023/04/08 03:38:52;;;;;;;0.20;0.20;;;;;;;12.12;50.15;102453.56;5046815;28;20037;-67
2023/04/08 03:41:17;;;;;;;0.20;0.20;;;;;;;12.08;50.26;102451.44;5050695;28;20037;-68
2023/04/08 03:43:43;;;;;;;0.30;0.30;;;;;;;11.90;50.63;102453.78;5050620;28;20098;-69
2023/04/08 03:46:08;;;;;;;0.40;0.40;;;;;;;11.85;50.80;102459.72;5051240;28;20424;-69
2023/04/08 03:48:34;;;;;;;0.20;0.20;;;;;;;11.81;50.85;102454.94;5050242;28;20465;-70
2023/04/08 03:50:59;;;;;;;0.20;0.20;;;;;;;11.88;50.87;102458.50;5050521;28;20098;-70
2023/04/08 03:53:26;;;;;;;0.30;0.30;;;;;;;11.78;50.33;102456.16;5050493;28;20500;-68
2023/04/08 03:55:52;;;;;;;0.30;0.30;;;;;;;11.90;50.65;102459.16;5050306;28;20025;-68
2023/04/08 03:58:17;;;;;;;0.30;0.30;;;;;;;11.74;51.61;102462.97;5051096;28;20025;-69
2023/04/08 04:00:43;;;;;;;0.38;0.38;;;;;;;11.75;52.33;102467.34;5033047;28;20493;-68
2023/04/08 04:03:11;;;;;;;0.30;0.30;;;;;;;11.83;51.53;102464.47;5050502;28;20041;-67
2023/04/08 04:05:37;;;;;;;0.22;0.22;;;;;;;11.75;51.79;102470.03;5050389;28;20150;-68
2023/04/08 04:08:02;;;;;;;0.40;0.40;;;;;;;11.88;51.35;102467.44;5050846;28;20806;-69
2023/04/08 04:10:28;;;;;;;0.20;0.20;;;;;;;11.86;51.30;102474.88;5051119;28;20032;-67
2023/04/08 04:12:53;;;;;;;0.30;0.30;;;;;;;11.97;51.02;102471.66;5049648;28;20033;-69
2023/04/08 04:15:18;;;;;;;0.45;0.30;;;;;;;11.64;51.18;102477.72;5049784;28;20076;-68
2023/04/08 04:17:47;;;;;;;0.20;0.20;;;;;;;11.82;51.57;102475.44;5048826;28;20053;-69
2023/04/08 04:20:12;;;;;;;0.25;0.25;;;;;;;11.71;52.14;102479.50;5050524;28;20381;-68
2023/04/08 04:22:37;;;;;;;0.30;0.30;;;;;;;11.76;51.56;102478.91;5051270;28;20029;-69
2023/04/08 04:25:03;;;;;;;0.30;0.30;;;;;;;11.62;51.91;102488.69;5050533;28;20120;-68
2023/04/08 04:27:28;;;;;;;0.30;0.30;;;;;;;11.52;52.55;102488.16;5050883;28;20037;-70
2023/04/08 04:29:54;;;;;;;0.30;0.30;;;;;;;11.77;51.59;102472.50;5050865;28;20068;-69
2023/04/08 04:32:19;;;;;;;0.20;0.20;;;;;;;11.83;51.03;102477.94;5050590;28;20065;-68
2023/04/08 04:34:45;;;;;;;0.30;0.30;;;;;;;11.80;51.76;102480.19;5050525;28;20342;-69
2023/04/08 04:37:10;;;;;;;0.45;0.45;;;;;;;11.82;51.44;102478.16;5053293;28;20528;-68
2023/04/08 04:39:36;;;;;;;0.30;0.30;;;;;;;11.80;51.33;102489.13;5054490;28;20525;-69
2023/04/08 04:42:02;;;;;;;0.25;0.25;;;;;;;11.64;51.75;102496.56;5054204;28;20037;-68
2023/04/08 04:44:27;;;;;;;0.22;0.22;;;;;;;11.81;51.24;102493.47;5054055;28;20043;-68
2023/04/08 04:46:53;;;;;;;0.30;0.30;;;;;;;11.76;51.47;102504.00;5036286;28;20020;-68
2023/04/08 04:49:18;;;;;;;0.35;0.35;;;;;;;11.76;51.70;102504.00;5054577;28;20130;-67
2023/04/08 04:51:43;;;;;;;0.40;0.40;;;;;;;11.69;52.14;102510.34;5053994;28;20044;-69
2023/04/08 04:54:09;;;;;;;0.40;0.40;;;;;;;11.79;51.87;102518.94;5054174;28;20105;-68
2023/04/08 04:56:34;;;;;;;0.30;0.30;;;;;;;11.76;52.29;102517.47;5054333;28;20064;-69
2023/04/08 04:58:59;;;;;;;0.28;0.28;;;;;;;11.79;51.54;102514.41;5053903;28;20028;-69
2023/04/08 05:01:25;;;;;;;0.25;0.25;;;;;;;11.57;53.25;102522.59;5054241;28;20460;-69
2023/04/08 05:03:50;;;;;;;0.20;0.20;;;;;;;11.77;52.15;102526.38;5053623;28;20037;-69
2023/04/08 05:06:16;;;;;;;0.38;0.38;;;;;;;11.93;52.10;102518.06;5053695;28;20541;-69
2023/04/08 05:08:41;;;;;;;0.30;0.30;;;;;;;11.87;51.88;102527.72;5053348;28;20063;-70
2023/04/08 05:11:10;;;;;;;0.43;0.43;;;;;;;11.89;51.94;102527.53;5053650;28;20048;-69
2023/04/08 05:13:35;;;;;;;0.40;0.40;;;;;;;11.63;53.05;102530.75;5036183;28;20091;-68
2023/04/08 05:16:00;;;;;;;0.20;0.20;;;;;;;11.88;52.36;102526.69;5035551;28;20625;-68
2023/04/08 05:18:26;;;;;;;0.45;0.45;;;;;;;11.88;52.71;102537.47;5053476;28;20440;-69
2023/04/08 05:20:51;;;;;;;0.30;0.30;;;;;;;11.84;52.13;102529.97;5053487;28;20064;-68
2023/04/08 05:23:17;;;;;;;0.40;0.40;;;;;;;11.85;52.14;102540.53;5053294;28;20045;-68
2023/04/08 05:25:42;;;;;;;0.30;0.30;;;;;;;11.80;52.43;102536.75;5053423;28;20551;-70
2023/04/08 05:28:08;;;;;;;0.40;0.40;;;;;;;11.58;53.07;102537.75;5053888;28;20033;-69
2023/04/08 05:30:33;;;;;;;0.20;0.20;;;;;;;12.05;51.85;102535.34;5053430;28;20047;-71
2023/04/08 05:32:58;;;;;;;0.32;0.32;;;;;;;11.96;52.27;102528.44;5053203;28;20036;-69
2023/04/08 05:35:24;;;;;;;0.40;0.40;;;;;;;11.74;52.31;102532.97;5037408;28;20120;-68
2023/04/08 05:37:49;;;;;;;0.40;0.40;;;;;;;11.96;52.29;102541.91;5040346;28;20052;-69
2023/04/08 05:40:15;;;;;;;0.20;0.20;;;;;;;11.93;52.45;102543.09;5053795;28;20099;-69
2023/04/08 05:42:41;;;;;;;0.20;0.20;;;;;;;11.91;52.00;102537.06;5034998;28;20048;-69
2023/04/08 05:45:07;;;;;;;0.20;0.20;;;;;;;11.87;51.96;102549.25;5053236;28;20044;-68
2023/04/08 05:47:32;;;;;;;0.30;0.30;;;;;;;12.03;51.93;102534.69;5052606;28;20041;-69
2023/04/08 05:49:58;;;;;;;0.30;0.30;;;;;;;12.04;52.92;102548.00;5053084;28;20090;-69
2023/04/08 05:52:23;;;;;;;0.25;0.25;;;;;;;12.02;52.50;102549.22;5053647;28;20377;-69
2023/04/08 05:54:49;;;;;;;0.20;0.20;;;;;;;12.02;52.32;102543.81;5052854;28;20063;-70
2023/04/08 05:57:15;;;;;;;0.20;0.20;;;;;;;12.11;51.84;102548.03;5052749;28;20440;-69
2023/04/08 05:59:41;;;;;;;0.20;0.20;;;;;;;11.98;51.85;102543.38;5052806;28;20041;-68
2023/04/08 06:02:06;;;;;;;0.30;0.30;;;;;;;11.73;53.19;102549.34;5052725;28;20037;-69
2023/04/08 06:04:31;;;;;;;0.20;0.20;;;;;;;12.12;51.83;102537.09;5055067;28;20029;-69
2023/04/08 06:06:58;;;;;;;0.30;0.30;;;;;;;12.04;52.17;102547.16;5052655;28;20045;-67
2023/04/08 06:09:24;;;;;;;0.20;0.20;;;;;;;12.29;51.94;102554.66;5052428;28;20036;-68
2023/04/08 06:11:50;;;;;;;0.20;0.20;;;;;;;12.09;52.09;102550.09;5052721;28;20033;-69
2023/04/08 06:14:16;;;;;;;0.28;0.28;;;;;;;11.68;53.25;102557.97;5052694;28;20496;-69
2023/04/08 06:16:41;;;;;;;0.20;0.20;;;;;;;12.11;52.59;102566.91;5050793;28;20075;-70
2023/04/08 06:19:06;;;;;;;0.30;0.30;;;;;;;12.37;52.18;102564.44;5034552;28;20053;-69
2023/04/08 06:21:32;;;;;;;0.30;0.30;;;;;;;12.28;52.57;102565.63;5052259;28;20051;-70
2023/04/08 06:23:57;;;;;;;0.20;0.20;;;;;;;12.32;53.61;102565.03;5052339;28;20397;-69
2023/04/08 06:26:22;;;;;;;0.22;0.22;;;;;;;12.16;53.20;102569.88;5052442;28;20075;-68
2023/04/08 06:28:48;;;;;;;0.30;0.30;;;;;;;12.73;52.62;102575.94;5052455;28;20454;-70
2023/04/08 06:31:13;;;;;;;0.35;0.35;;;;;;;12.93;52.51;102576.06;5053407;28;20021;-69
2023/04/08 06:33:39;;;;;;;0.30;0.30;;;;;;;13.16;51.83;102590.16;5016448;28;20422;-69
2023/04/08 06:36:05;;;;;;;0.30;0.30;;;;;;;13.06;52.33;102587.81;5019279;28;20075;-68
2023/04/08 06:38:31;;;;;;;0.30;0.30;;;;;;;12.99;51.40;102600.38;5032143;28;20072;-69
2023/04/08 06:41:01;;;;;;;0.15;0.15;;;;;;;13.12;51.94;102600.50;5033840;28;20104;-67
2023/04/08 06:43:27;;;;;;;0.10;0.10;;;;;;;12.58;53.44;102602.16;5052500;28;20032;-69
2023/04/08 06:45:52;;;;;;;0.20;0.20;;;;;;;13.35;51.71;102594.81;5051995;28;20041;-69
2023/04/08 06:48:17;;;;;;;0.20;0.20;;;;;;;13.34;51.49;102595.84;5051975;28;20060;-67
2023/04/08 06:50:43;;;;;;;0.22;0.22;;;;;;;13.72;50.92;102598.91;5033505;28;20036;-68
2023/04/08 06:53:08;;;;;;;0.38;0.38;;;;;;;13.63;51.92;102597.41;5052128;28;20029;-69
2023/04/08 06:55:34;;;;;;;0.20;0.20;;;;;;;13.79;51.24;102607.88;5052353;28;20483;-68
2023/04/08 06:58:00;;;;;;;0.20;0.20;;;;;;;14.42;50.10;102610.09;5051787;28;20524;-70
2023/04/08 07:00:26;;;;;;;0.30;0.30;;;;;;;14.20;50.91;102613.16;5045994;28;20060;-69
2023/04/08 07:02:51;;;;;;;0.20;0.20;;;;;;;14.01;51.08;102620.19;5041398;28;20037;-68
2023/04/08 07:05:17;;;;;;;0.30;0.30;;;;;;;13.96;51.55;102620.81;5050242;28;20409;-67
2023/04/08 07:07:42;;;;;;;0.30;0.30;;;;;;;14.40;50.21;102631.13;5049151;28;20469;-68
2023/04/08 07:10:08;;;;;;;0.25;0.25;;;;;;;14.23;50.40;102629.78;5051800;28;20032;-68
2023/04/08 07:12:33;;;;;;;0.35;0.35;;;;;;;14.37;50.82;102628.81;5049074;28;20029;-68
2023/04/08 07:14:59;;;;;;;0.40;0.40;;;;;;;14.40;50.48;102630.28;5004547;28;20033;-68
2023/04/08 07:17:24;;;;;;;0.20;0.20;;;;;;;14.65;50.01;102631.31;5032632;28;20072;-67
2023/04/08 07:19:49;;;;;;;0.20;0.20;;;;;;;15.14;48.95;102628.13;5047077;28;20055;-69
2023/04/08 07:22:15;;;;;;;0.20;0.20;;;;;;;14.47;51.15;102634.66;5050100;28;20082;-68
2023/04/08 07:24:42;;;;;;;0.13;0.13;;;;;;;15.26;49.40;102631.88;5033280;28;20893;-68
2023/04/08 07:27:08;;;;;;;0.20;0.20;;;;;;;15.24;49.92;102639.38;5027301;28;20576;-67
2023/04/08 07:29:33;;;;;;;0.10;0.10;;;;;;;15.54;49.20;102636.00;5036739;28;20112;-68
2023/04/08 07:31:58;;;;;;;0.38;0.38;;;;;;;15.56;49.59;102643.91;5049885;28;20477;-68
2023/04/08 07:34:24;;;;;;;0.30;0.30;;;;;;;15.11;51.76;102642.94;5049584;28;20108;-68
2023/04/08 07:36:49;;;;;;;0.20;0.20;;;;;;;15.68;49.76;102645.72;5031456;28;20041;-66
2023/04/08 07:39:15;;;;;;;0.20;0.20;;;;;;;15.78;49.74;102643.38;5049579;28;20400;-67
2023/04/08 07:41:40;;;;;;;0.30;0.30;;;;;;;16.44;48.38;102649.25;5049557;28;20060;-68
2023/04/08 07:44:06;;;;;;;0.20;0.20;;;;;;;16.28;48.55;102647.06;5049272;28;20148;-68
2023/04/08 07:46:35;;;;;;;0.30;0.30;;;;;;;16.32;48.32;102651.00;5050202;28;20028;-67
2023/04/08 07:49:01;;;;;;;0.30;0.30;;;;;;;16.27;48.83;102656.28;5049908;28;20037;-68
2023/04/08 07:51:26;;;;;;;0.20;0.20;;;;;;;16.37;49.28;102663.94;5049385;28;20052;-67
2023/04/08 07:53:52;;;;;;;0.30;0.30;;;;;;;16.49;48.75;102662.22;5049874;28;20067;-68
2023/04/08 07:56:17;;;;;;;0.10;0.10;;;;;;;15.87;50.01;102654.81;5049685;28;20465;-67
2023/04/08 07:58:43;;;;;;;0.20;0.20;;;;;;;16.34;48.62;102656.19;5049224;28;20396;-69
2023/04/08 08:01:20;;;;;;;0.30;0.30;;;;;;;16.52;48.69;102659.88;5049856;28;20043;-68
2023/04/08 08:03:50;;;;;;;0.30;0.30;;;;;;;16.44;48.01;102662.81;5049232;28;20127;-69
2023/04/08 08:06:15;;;;;;;0.20;0.20;;;;;;;16.14;49.99;102661.75;5049374;28;20048;-68
2023/04/08 08:08:41;;;;;;;0.30;0.30;;;;;;;15.93;49.78;102667.50;5049705;28;20477;-66
2023/04/08 08:11:06;;;;;;;0.30;0.30;;;;;;;15.94;50.81;102668.34;5051028;28;20127;-68
2023/04/08 08:13:33;;;;;;;0.10;0.10;;;;;;;15.85;50.75;102662.31;5055530;28;20562;-67
2023/04/08 08:15:58;;;;;;;0.30;0.30;;;;;;;16.01;49.34;102664.56;5056745;28;20056;-68
2023/04/08 08:18:23;;;;;;;0.30;0.30;;;;;;;16.22;49.57;102666.09;5057335;28;20037;-68
2023/04/08 08:20:49;;;;;;;0.30;0.30;;;;;;;15.88;49.81;102672.72;5053867;28;20532;-68
2023/04/08 08:23:14;;;;;;;0.40;0.40;;;;;;;16.63;49.27;102669.19;5058010;28;20088;-67
2023/04/08 08:25:40;;;;;;;0.20;0.20;;;;;;;16.06;51.04;102674.75;5063991;28;20499;-67
2023/04/08 08:28:05;;;;;;;0.30;0.30;;;;;;;16.65;49.44;102681.47;5058467;28;20040;-69
2023/04/08 08:30:30;;;;;;;0.30;0.30;;;;;;;16.91;48.70;102675.00;5038110;28;20037;-68
2023/04/08 08:32:57;;;;;;;0.20;0.20;;;;;;;16.43;48.69;102677.44;5055268;28;20076;-68
2023/04/08 08:35:23;;;;;;;0.20;0.20;;;;;;;15.91;50.38;102675.03;5050887;28;20037;-69
2023/04/08 08:37:49;;;;;;;0.30;0.30;;;;;;;16.01;49.27;102678.13;5057598;28;20031;-67
2023/04/08 08:40:15;;;;;;;0.30;0.30;;;;;;;15.58;51.17;102677.88;5055808;28;20025;-67
2023/04/08 08:42:41;;;;;;;0.28;0.28;;;;;;;16.03;50.80;102680.59;5054884;28;20033;-68
2023/04/08 08:45:07;;;;;;;0.20;0.20;;;;;;;16.38;49.45;102687.28;5044223;28;20374;-68
2023/04/08 08:47:33;;;;;;;0.30;0.30;;;;;;;16.99;47.64;102674.72;5049424;28;20045;-69
2023/04/08 08:49:58;;;;;;;0.50;0.50;;;;;;;16.85;48.07;102677.78;5050367;28;20071;-70
2023/04/08 08:52:24;;;;;;;0.30;0.30;;;;;;;17.43;47.32;102666.31;5035343;28;20029;-68
2023/04/08 08:54:57;;;;;;;0.30;0.30;;;;;;;17.60;46.83;102682.91;5053122;28;20044;-70
2023/04/08 08:57:22;;;;;;;0.30;0.30;;;;;;;17.21;47.37;102681.41;5054000;28;20063;-68
2023/04/08 08:59:48;;;;;;;0.20;0.20;;;;;;;17.47;46.77;102689.28;5053750;28;20131;-68
2023/04/08 09:02:30;;;;;;;0.22;0.22;;;;;;;18.23;45.08;102681.47;5053867;28;20028;-68
2023/04/08 09:05:03;;;;;;;0.32;0.30;;;;;;;17.92;46.31;102683.56;5053601;28;20136;-68
2023/04/08 09:07:30;;;;;;;0.20;0.20;;;;;;;17.59;46.12;102696.72;5053652;28;20196;-68
2023/04/08 09:09:57;;;;;;;0.10;0.10;;;;;;;18.59;44.15;102694.16;5053408;28;20386;-67
2023/04/08 09:12:26;;;;;;;0.20;0.20;;;;;;;18.90;42.73;102693.00;5053583;28;20064;-68
2023/04/08 09:15:02;;;;;;;0.20;0.20;;;;;;;19.05;42.53;102687.94;5044259;28;20030;-70
2023/04/08 09:17:38;;;;;;;0.30;0.30;;;;;;;18.68;44.28;102681.00;5032443;28;20441;-69
2023/04/08 09:20:11;;;;;;;0.20;0.20;;;;;;;19.08;43.32;102676.56;5027080;28;20041;-70
2023/04/08 09:22:59;;;;;;;0.20;0.20;;;;;;;19.55;42.61;102667.31;5022844;28;20137;-71
2023/04/08 09:25:33;;;;;;;0.20;0.20;;;;;;;18.84;42.90;102664.81;5026492;28;20041;-68
2023/04/08 09:27:59;;;;;;;0.20;0.20;;;;;;;19.18;41.20;102663.19;5032739;28;20037;-70
2023/04/08 09:30:26;;;;;;;0.20;0.20;;;;;;;18.31;42.42;102663.97;5043859;28;20102;-71
2023/04/08 09:32:58;;;;;;;0.20;0.20;;;;;;;17.91;44.03;102676.44;5053256;28;20029;-68
2023/04/08 09:35:24;;;;;;;0.20;0.20;;;;;;;18.88;43.11;102687.81;5019500;28;20095;-68
2023/04/08 09:37:50;;;;;;;0.10;0.10;;;;;;;19.42;42.35;102689.38;5032662;28;20025;-71
2023/04/08 09:40:16;;;;;;;0.20;0.20;;;;;;;19.12;43.52;102700.34;5032939;28;20492;-67
2023/04/08 09:42:50;;;;;;;0.20;0.20;;;;;;;19.01;43.54;102703.91;5014527;28;20042;-67
2023/04/08 09:45:17;;;;;;;0.20;0.20;;;;;;;19.79;41.21;102711.72;5029544;28;20068;-67
2023/04/08 09:47:57;;;;;;;0.17;0.17;;;;;;;19.78;40.93;102710.91;5021810;28;20067;-67
2023/04/08 09:50:27;;;;;;;0.15;0.15;;;;;;;19.43;41.84;102710.13;5022886;28;20045;-68
2023/04/08 09:53:00;;;;;;;0.30;0.30;;;;;;;17.61;45.73;102710.94;5025926;28;20073;-67
2023/04/08 09:55:29;;;;;;;0.20;0.20;;;;;;;18.66;44.28;102702.19;5032595;28;20056;-69
2023/04/08 09:57:59;;;;;;;0.20;0.20;;;;;;;17.97;45.23;102695.41;5042292;28;20059;-68
2023/04/08 10:00:31;;;;;;;0.10;0.10;;;;;;;16.93;48.71;102704.66;5052252;28;20790;-68
2023/04/08 10:03:14;;;;;;;0.30;0.30;;;;;;;18.55;45.26;102692.97;5050870;28;20044;-66
2023/04/08 10:05:42;;;;;;;0.20;0.20;;;;;;;16.80;48.79;102702.91;5012404;28;20402;-68
2023/04/08 10:08:07;;;;;;;0.30;0.30;;;;;;;17.33;47.66;102684.22;5030913;28;20038;-68
2023/04/08 10:10:35;;;;;;;0.20;0.20;;;;;;;16.65;49.43;102694.22;5012876;28;20116;-70
2023/04/08 10:13:02;;;;;;;0.20;0.20;;;;;;;18.71;44.74;102681.38;5011733;28;20034;-68
2023/04/08 10:15:30;;;;;;;0.30;0.30;;;;;;;18.07;45.67;102684.81;5011800;28;20426;-67
2023/04/08 10:18:01;;;;;;;0.20;0.20;;;;;;;17.74;47.52;102697.16;5012464;28;20038;-70
2023/04/08 10:20:33;;;;;;;0.20;0.20;;;;;;;17.53;46.62;102703.91;5007885;28;20050;-66
2023/04/08 10:22:59;;;;;;;0.10;0.10;;;;;;;18.34;44.83;102693.44;5008424;28;20026;-67
2023/04/08 10:25:30;;;;;;;0.28;0.28;;;;;;;17.17;46.55;102698.38;5047147;28;20029;-70
2023/04/08 10:27:55;;;;;;;0.10;0.10;;;;;;;17.02;47.77;102695.19;5034766;28;20051;-66
2023/04/08 10:30:26;;;;;;;0.20;0.20;;;;;;;18.77;43.40;102690.53;5049245;28;20029;-68
2023/04/08 10:33:08;;;;;;;0.20;0.20;;;;;;;18.53;45.08;102699.69;5047710;28;20040;-69
2023/04/08 10:35:42;;;;;;;0.13;0.13;;;;;;;20.22;41.79;102693.00;5046935;28;20025;-67
2023/04/08 10:38:07;;;;;;;0.20;0.20;;;;;;;19.52;42.42;102694.25;5047907;28;20033;-68
2023/04/08 10:40:43;;;;;;;0.20;0.20;;;;;;;20.11;41.22;102697.38;5048006;28;20032;-70
2023/04/08 10:43:10;;;;;;;0.15;0.15;;;;;;;20.11;40.28;102696.53;5046971;28;20036;-68
2023/04/08 10:45:36;;;;;;;0.20;0.20;;;;;;;20.59;40.37;102688.75;5048830;28;20025;-67
2023/04/08 10:48:30;;;;;;;0.28;0.28;;;;;;;21.70;39.29;102676.78;5047642;28;20048;-68
2023/04/08 10:50:59;;;;;;;0.20;0.20;;;;;;;21.16;38.25;102673.03;4945514;29;20487;-66
2023/04/08 10:53:36;;;;;;;0.10;0.10;;;;;;;21.91;38.90;102677.88;4946775;29;20046;-68
2023/04/08 10:56:20;;;;;;;0.20;0.20;;;;;;;21.80;38.16;102677.75;4947114;28;20378;-70
2023/04/08 10:58:50;;;;;;;0.20;0.20;;;;;;;19.66;42.16;102674.63;4957101;28;20252;-68
2023/04/08 11:01:16;;;;;;;0.10;0.10;;;;;;;19.73;41.10;102672.59;4959645;28;20032;-67
2023/04/08 11:03:42;;;;;;;0.20;0.20;;;;;;;19.92;41.68;102674.09;4956388;28;20195;-68
2023/04/08 11:06:08;;;;;;;0.20;0.20;;;;;;;21.44;38.89;102659.22;4952411;28;20122;-67
2023/04/08 11:08:35;;;;;;;0.20;0.20;;;;;;;20.33;41.10;102675.72;4955055;28;20047;-68
2023/04/08 11:11:01;;;;;;;0.20;0.20;;;;;;;20.74;39.73;102680.81;4955442;28;20023;-68
2023/04/08 11:13:27;;;;;;;0.10;0.10;;;;;;;21.93;38.14;102673.81;4957485;28;20653;-70
2023/04/08 11:15:54;;;;;;;0.20;0.20;;;;;;;21.67;38.43;102677.28;4953248;28;20049;-71
2023/04/08 11:18:21;;;;;;;0.10;0.10;;;;;;;21.41;38.42;102676.13;4967604;28;20046;-69
2023/04/08 11:20:49;;;;;;;0.10;0.10;;;;;;;21.81;37.39;102675.88;4974378;28;20047;-71
2023/04/08 11:23:16;;;;;;;0.20;0.20;;;;;;;22.36;37.66;102671.00;4958552;28;20038;-67